Time;durP1;ratioP1;P1;durP2;ratioP2;P2;SDS_P1;SDS_P2;PMS_P1;PMS_P2;Temp;Humidity;BMP_temperature;BMP_pressure;BME280_temperature;BME280_humidity;BME280_pressure;Samples;Min_cycle;Max_cycle;Signal;HPM_P1;HPM_P2
2022/08/03 00:01:02;;;;;;;;;;;;;;;;;;5056071;28;19967;-78
2022/08/03 00:03:28;;;;;;;;;;;;;;;;;;5055810;28;19952;-76
2022/08/03 00:05:53;;;;;;;;;;;;;;;;;;5039642;28;19999;-75
2022/08/03 00:08:19;;;;;;;;;;;;;;;;;;5073719;28;20007;-75
2022/08/03 00:10:44;;;;;;;;;;;;;;;;;;5073798;28;19962;-77
2022/08/03 00:13:11;;;;;;;;;;;;;;;;;;5055978;28;19916;-76
2022/08/03 00:15:37;;;;;;;;;;;;;;;;;;5056278;28;19916;-78
2022/08/03 00:18:02;;;;;;;;;;;;;;;;;;5055725;28;19920;-76
2022/08/03 00:20:27;;;;;;;;;;;;;;;;;;5056057;28;20377;-76
2022/08/03 00:26:08;;;;;;;;;;;;;;;;;;5055979;28;20007;-77
2022/08/03 00:28:33;;;;;;;;;;;;;;;;;;5073977;28;19959;-76
2022/08/03 00:30:59;;;;;;;;;;;;;;;;;;5055901;28;19919;-76
2022/08/03 00:33:24;;;;;;;;;;;;;;;;;;5073030;28;19912;-76
2022/08/03 00:35:50;;;;;;;;;;;;;;;;;;5073530;28;19935;-77
2022/08/03 00:38:15;;;;;;;;;;;;;;;;;;5055731;28;19921;-76
2022/08/03 00:40:40;;;;;;;;;;;;;;;;;;5073127;28;19912;-78
2022/08/03 00:43:06;;;;;;;;;;;;;;;;;;5054885;28;19913;-77
2022/08/03 00:45:31;;;;;;;;;;;;;;;;;;5073234;28;19923;-76
2022/08/03 00:47:56;;;;;;;;;;;;;;;;;;5055149;28;20304;-77
2022/08/03 00:50:22;;;;;;;;;;;;;;;;;;5073222;28;20076;-77
2022/08/03 00:52:47;;;;;;;;;;;;;;;;;;5054876;28;19921;-76
2022/08/03 00:55:12;;;;;;;;;;;;;;;;;;5055403;28;19912;-77
2022/08/03 00:57:38;;;;;;;;;;;;;;;;;;5073283;28;20006;-76
2022/08/03 01:00:03;;;;;;;;;;;;;;;;;;5073972;28;19916;-75
2022/08/03 01:02:29;;;;;;;;;;;;;;;;;;5073886;28;19932;-76
2022/08/03 01:04:54;;;;;;;;;;;;;;;;;;5056176;28;19912;-76
2022/08/03 01:07:20;;;;;;;;;;;;;;;;;;5039550;28;19912;-76
2022/08/03 01:09:45;;;;;;;;;;;;;;;;;;5039189;28;19959;-76
2022/08/03 01:12:10;;;;;;;;;;;;;;;;;;5039209;28;19912;-77
2022/08/03 01:14:36;;;;;;;;;;;;;;;;;;5072462;28;19916;-77
2022/08/03 01:17:01;;;;;;;;;;;;;;;;;;5054793;28;20020;-77
2022/08/03 01:19:26;;;;;;;;;;;;;;;;;;5038277;28;19956;-78
2022/08/03 01:21:52;;;;;;;;;;;;;;;;;;5054708;28;19908;-76
2022/08/03 01:24:17;;;;;;;;;;;;;;;;;;5054142;28;19913;-76
2022/08/03 01:26:43;;;;;;;;;;;;;;;;;;5054596;28;19912;-78
2022/08/03 01:29:08;;;;;;;;;;;;;;;;;;5038092;28;19916;-77
2022/08/03 01:31:33;;;;;;;;;;;;;;;;;;5056110;28;19913;-78
2022/08/03 01:33:59;;;;;;;;;;;;;;;;;;5079419;28;19916;-76
2022/08/03 01:36:24;;;;;;;;;;;;;;;;;;5057757;28;19995;-76
2022/08/03 01:38:49;;;;;;;;;;;;;;;;;;5059111;28;20287;-75
2022/08/03 01:41:15;;;;;;;;;;;;;;;;;;5024609;28;19912;-77
2022/08/03 01:43:40;;;;;;;;;;;;;;;;;;5037763;28;19928;-78
2022/08/03 01:46:06;;;;;;;;;;;;;;;;;;5054625;28;19919;-77
2022/08/03 01:48:31;;;;;;;;;;;;;;;;;;5072402;28;19908;-78
2022/08/03 01:50:56;;;;;;;;;;;;;;;;;;5072386;28;19919;-76
2022/08/03 01:53:22;;;;;;;;;;;;;;;;;;5072004;28;19955;-76
2022/08/03 01:55:47;;;;;;;;;;;;;;;;;;5072299;28;19920;-77
2022/08/03 01:58:12;;;;;;;;;;;;;;;;;;5054323;28;19977;-78
2022/08/03 02:00:41;;;;;;;;;;;;;;;;;;5038022;28;20303;-77
2022/08/03 02:03:06;;;;;;;;;;;;;;;;;;5054029;28;19908;-77
2022/08/03 02:05:31;;;;;;;;;;;;;;;;;;5037378;28;20337;-77
2022/08/03 02:07:57;;;;;;;;;;;;;;;;;;5054046;28;19919;-77
2022/08/03 02:10:22;;;;;;;;;;;;;;;;;;5037517;28;19999;-76
2022/08/03 02:12:48;;;;;;;;;;;;;;;;;;5053439;28;20014;-76
2022/08/03 02:15:13;;;;;;;;;;;;;;;;;;5053783;28;20294;-78
2022/08/03 02:17:38;;;;;;;;;;;;;;;;;;5053511;28;19920;-77
2022/08/03 02:20:04;;;;;;;;;;;;;;;;;;5053678;28;19908;-77
2022/08/03 02:22:29;;;;;;;;;;;;;;;;;;5053900;28;19912;-78
2022/08/03 02:24:55;;;;;;;;;;;;;;;;;;5053786;28;19913;-77
2022/08/03 02:27:20;;;;;;;;;;;;;;;;;;5071506;28;20011;-77
2022/08/03 02:29:46;;;;;;;;;;;;;;;;;;5037420;28;20014;-76
2022/08/03 02:32:11;;;;;;;;;;;;;;;;;;5037123;28;19962;-78
2022/08/03 02:34:36;;;;;;;;;;;;;;;;;;5071340;28;19919;-76
2022/08/03 02:37:02;;;;;;;;;;;;;;;;;;5053461;28;20287;-78
2022/08/03 02:39:28;;;;;;;;;;;;;;;;;;5036939;28;19912;-77
2022/08/03 02:41:54;;;;;;;;;;;;;;;;;;5053586;28;20015;-76
2022/08/03 02:44:19;;;;;;;;;;;;;;;;;;5036571;28;20307;-75
2022/08/03 02:46:44;;;;;;;;;;;;;;;;;;5053742;28;19912;-77
2022/08/03 02:49:10;;;;;;;;;;;;;;;;;;5053536;28;20379;-78
2022/08/03 02:51:35;;;;;;;;;;;;;;;;;;5037345;28;20391;-77
2022/08/03 02:54:01;;;;;;;;;;;;;;;;;;5052902;28;19913;-76
2022/08/03 02:56:26;;;;;;;;;;;;;;;;;;5036634;28;20406;-75
2022/08/03 02:58:52;;;;;;;;;;;;;;;;;;5036649;28;19919;-77
2022/08/03 03:01:17;;;;;;;;;;;;;;;;;;5053926;28;19913;-77
2022/08/03 03:03:44;;;;;;;;;;;;;;;;;;5053760;28;20374;-78
2022/08/03 03:06:09;;;;;;;;;;;;;;;;;;5071889;28;19916;-75
2022/08/03 03:08:34;;;;;;;;;;;;;;;;;;5071425;28;20296;-76
2022/08/03 03:11:00;;;;;;;;;;;;;;;;;;5053843;28;19923;-77
2022/08/03 03:13:25;;;;;;;;;;;;;;;;;;5037170;28;19912;-77
2022/08/03 03:15:51;;;;;;;;;;;;;;;;;;5054555;28;19912;-77
2022/08/03 03:18:16;;;;;;;;;;;;;;;;;;5074887;28;19923;-76
2022/08/03 03:20:43;;;;;;;;;;;;;;;;;;5057731;28;19915;-78
2022/08/03 03:23:08;;;;;;;;;;;;;;;;;;5040902;28;19973;-78
2022/08/03 03:25:34;;;;;;;;;;;;;;;;;;5075726;28;19917;-79
2022/08/03 03:27:59;;;;;;;;;;;;;;;;;;5085551;22;19925;-79
2022/08/03 03:30:25;;;;;;;;;;;;;;;;;;5040801;28;19963;-79
2022/08/03 03:32:50;;;;;;;;;;;;;;;;;;5074696;28;19955;-79
2022/08/03 03:35:15;;;;;;;;;;;;;;;;;;5074875;28;20365;-80
2022/08/03 03:37:41;;;;;;;;;;;;;;;;;;5074655;28;19916;-79
2022/08/03 03:40:07;;;;;;;;;;;;;;;;;;5040389;28;19912;-80
2022/08/03 03:42:33;;;;;;;;;;;;;;;;;;5040566;28;19912;-80
2022/08/03 03:44:58;;;;;;;;;;;;;;;;;;5057529;28;19912;-80
2022/08/03 03:47:24;;;;;;;;;;;;;;;;;;5056984;28;20395;-79
2022/08/03 03:49:49;;;;;;;;;;;;;;;;;;5040584;28;19916;-80
2022/08/03 03:52:17;;;;;;;;;;;;;;;;;;5056649;28;20050;-80
2022/08/03 03:54:43;;;;;;;;;;;;;;;;;;5040023;28;19916;-81
2022/08/03 03:57:09;;;;;;;;;;;;;;;;;;5074603;28;20107;-79
2022/08/03 03:59:34;;;;;;;;;;;;;;;;;;5040511;28;20011;-80
2022/08/03 04:02:00;;;;;;;;;;;;;;;;;;5040350;28;20453;-81
2022/08/03 04:12:37;;;;;;;;;;;;;;;;;;5073854;28;19912;-79
2022/08/03 04:15:02;;;;;;;;;;;;;;;;;;5073969;28;20421;-80
2022/08/03 04:17:28;;;;;;;;;;;;;;;;;;5055543;28;20383;-80
2022/08/03 04:19:53;;;;;;;;;;;;;;;;;;5055838;28;19913;-80
2022/08/03 04:22:18;;;;;;;;;;;;;;;;;;5073736;28;19912;-79
2022/08/03 04:24:44;;;;;;;;;;;;;;;;;;5073441;28;19913;-80
2022/08/03 04:27:09;;;;;;;;;;;;;;;;;;5055400;28;19919;-80
2022/08/03 04:29:35;;;;;;;;;;;;;;;;;;5073341;28;19916;-81
2022/08/03 04:32:00;;;;;;;;;;;;;;;;;;5073537;28;20352;-80
2022/08/03 04:34:25;;;;;;;;;;;;;;;;;;5039418;28;19954;-80
2022/08/03 04:36:51;;;;;;;;;;;;;;;;;;5073635;28;19917;-80
2022/08/03 04:39:16;;;;;;;;;;;;;;;;;;5073204;28;19919;-81
2022/08/03 04:41:41;;;;;;;;;;;;;;;;;;5073331;28;20391;-79
2022/08/03 04:44:07;;;;;;;;;;;;;;;;;;5072915;28;20458;-80
2022/08/03 04:46:32;;;;;;;;;;;;;;;;;;5073337;28;19960;-79
2022/08/03 04:48:57;;;;;;;;;;;;;;;;;;5055132;28;19913;-80
2022/08/03 04:51:23;;;;;;;;;;;;;;;;;;5055312;28;19962;-79
2022/08/03 04:53:48;;;;;;;;;;;;;;;;;;5072755;28;19913;-79
2022/08/03 04:56:13;;;;;;;;;;;;;;;;;;5055332;28;19913;-80
2022/08/03 04:58:39;;;;;;;;;;;;;;;;;;5038432;28;20406;-80
2022/08/03 05:01:04;;;;;;;;;;;;;;;;;;5072895;28;20332;-79
2022/08/03 05:03:30;;;;;;;;;;;;;;;;;;5054810;28;19917;-80
2022/08/03 05:05:56;;;;;;;;;;;;;;;;;;5054697;28;19913;-81
2022/08/03 05:08:21;;;;;;;;;;;;;;;;;;5072366;28;20363;-82
2022/08/03 05:10:46;;;;;;;;;;;;;;;;;;5072968;28;20414;-82
2022/08/03 05:13:12;;;;;;;;;;;;;;;;;;5054171;28;19924;-82
2022/08/03 05:15:37;;;;;;;;;;;;;;;;;;5072255;28;19913;-82
2022/08/03 05:18:03;;;;;;;;;;;;;;;;;;5072633;28;19920;-81
2022/08/03 05:20:29;;;;;;;;;;;;;;;;;;5058678;28;19999;-82
2022/08/03 05:22:55;;;;;;;;;;;;;;;;;;5057279;28;20335;-82
2022/08/03 05:25:20;;;;;;;;;;;;;;;;;;5057097;28;19913;-82
2022/08/03 05:27:46;;;;;;;;;;;;;;;;;;5077698;28;20221;-82
2022/08/03 05:30:11;;;;;;;;;;;;;;;;;;5062125;28;19913;-82
2022/08/03 05:32:36;;;;;;;;;;;;;;;;;;5075095;28;19947;-81
2022/08/03 05:35:02;;;;;;;;;;;;;;;;;;5026548;28;20367;-81
2022/08/03 05:37:27;;;;;;;;;;;;;;;;;;5047171;28;19924;-80
2022/08/03 05:39:53;;;;;;;;;;;;;;;;;;5057892;28;19912;-81
2022/08/03 05:42:18;;;;;;;;;;;;;;;;;;5076809;28;19912;-81
2022/08/03 05:44:43;;;;;;;;;;;;;;;;;;5056228;28;19927;-82
2022/08/03 05:47:09;;;;;;;;;;;;;;;;;;5058013;28;19916;-82
2022/08/03 05:49:34;;;;;;;;;;;;;;;;;;5078135;28;19912;-81
2022/08/03 05:51:59;;;;;;;;;;;;;;;;;;5075190;28;19919;-80
2022/08/03 05:54:25;;;;;;;;;;;;;;;;;;5071734;28;19928;-81
2022/08/03 05:56:50;;;;;;;;;;;;;;;;;;5072171;28;19917;-80
2022/08/03 05:59:30;;;;;;;;;;;;;;;;;;5109676;27;19947;-83
2022/08/03 06:01:55;;;;;;;;;;;;;;;;;;5109720;28;19935;-82
2022/08/03 06:04:21;;;;;;;;;;;;;;;;;;5109685;28;19908;-81
2022/08/03 06:06:47;;;;;;;;;;;;;;;;;;5091790;28;19912;-81
2022/08/03 06:09:12;;;;;;;;;;;;;;;;;;5108365;28;19924;-81
2022/08/03 06:11:37;;;;;;;;;;;;;;;;;;5109448;28;20256;-81
2022/08/03 06:14:03;;;;;;;;;;;;;;;;;;5109150;28;19926;-81
2022/08/03 06:16:28;;;;;;;;;;;;;;;;;;5108410;28;20402;-80
2022/08/03 06:18:54;;;;;;;;;;;;;;;;;;5091201;28;20196;-80
2022/08/03 06:21:19;;;;;;;;;;;;;;;;;;5109400;28;20267;-80
2022/08/03 06:23:44;;;;;;;;;;;;;;;;;;5109070;28;19918;-82
2022/08/03 06:26:10;;;;;;;;;;;;;;;;;;5108051;28;19938;-82
2022/08/03 06:28:38;;;;;;;;;;;;;;;;;;5109082;28;19939;-82
2022/08/03 06:31:03;;;;;;;;;;;;;;;;;;5108129;28;19912;-82
2022/08/03 06:33:29;;;;;;;;;;;;;;;;;;5091171;28;19912;-82
2022/08/03 06:35:54;;;;;;;;;;;;;;;;;;5109516;28;20519;-82
2022/08/03 06:38:19;;;;;;;;;;;;;;;;;;5107636;28;19919;-82
2022/08/03 06:40:45;;;;;;;;;;;;;;;;;;5108892;28;19957;-81
2022/08/03 06:43:10;;;;;;;;;;;;;;;;;;5107500;28;20006;-80
2022/08/03 06:45:36;;;;;;;;;;;;;;;;;;5108429;28;19912;-80
2022/08/03 06:48:01;;;;;;;;;;;;;;;;;;5110014;28;19957;-80
2022/08/03 06:50:27;;;;;;;;;;;;;;;;;;5109891;28;19919;-82
2022/08/03 06:52:52;;;;;;;;;;;;;;;;;;5108461;28;20350;-81
2022/08/03 06:55:17;;;;;;;;;;;;;;;;;;5110939;28;20329;-82
2022/08/03 06:57:43;;;;;;;;;;;;;;;;;;5116228;28;19916;-82
2022/08/03 07:00:08;;;;;;;;;;;;;;;;;;5131121;28;19923;-80
2022/08/03 07:02:34;;;;;;;;;;;;;;;;;;5120066;28;19956;-80
2022/08/03 07:04:59;;;;;;;;;;;;;;;;;;5113831;28;19933;-80
2022/08/03 07:07:24;;;;;;;;;;;;;;;;;;5093772;28;20354;-80
2022/08/03 07:09:50;;;;;;;;;;;;;;;;;;5108015;28;19908;-81
2022/08/03 07:12:15;;;;;;;;;;;;;;;;;;5117122;28;20366;-81
2022/08/03 07:14:40;;;;;;;;;;;;;;;;;;5080432;28;20336;-81
2022/08/03 07:17:06;;;;;;;;;;;;;;;;;;5116220;28;19951;-81
2022/08/03 07:19:31;;;;;;;;;;;;;;;;;;5117797;28;19961;-80
2022/08/03 07:21:57;;;;;;;;;;;;;;;;;;5121007;28;19937;-82
2022/08/03 07:24:23;;;;;;;;;;;;;;;;;;5107208;28;19966;-82
2022/08/03 07:26:48;;;;;;;;;;;;;;;;;;5119957;28;19912;-81
2022/08/03 07:29:14;;;;;;;;;;;;;;;;;;5102723;28;19916;-80
2022/08/03 07:31:39;;;;;;;;;;;;;;;;;;5097402;28;20487;-80
2022/08/03 07:34:04;;;;;;;;;;;;;;;;;;5114438;28;19912;-81
2022/08/03 07:36:31;;;;;;;;;;;;;;;;;;5115448;28;20355;-81
2022/08/03 07:38:57;;;;;;;;;;;;;;;;;;5096853;28;19915;-81
2022/08/03 07:41:22;;;;;;;;;;;;;;;;;;5083978;28;19916;-79
2022/08/03 07:43:47;;;;;;;;;;;;;;;;;;5099111;28;20002;-80
2022/08/03 07:46:13;;;;;;;;;;;;;;;;;;5097923;28;19918;-78
2022/08/03 07:48:39;;;;;;;;;;;;;;;;;;5080211;28;20298;-80
2022/08/03 07:51:04;;;;;;;;;;;;;;;;;;5115582;28;20002;-80
2022/08/03 07:53:30;;;;;;;;;;;;;;;;;;5097276;28;19911;-80
2022/08/03 07:55:55;;;;;;;;;;;;;;;;;;5078851;28;19919;-81
2022/08/03 07:58:22;;;;;;;;;;;;;;;;;;5095903;28;19983;-80
2022/08/03 08:00:49;;;;;;;;;;;;;;;;;;5079342;28;19919;-80
2022/08/03 08:03:14;;;;;;;;;;;;;;;;;;5095690;28;19912;-79
2022/08/03 08:05:39;;;;;;;;;;;;;;;;;;5095867;28;20026;-79
2022/08/03 08:08:05;;;;;;;;;;;;;;;;;;5114078;28;19912;-80
2022/08/03 08:10:31;;;;;;;;;;;;;;;;;;5114334;28;19919;-80
2022/08/03 08:12:57;;;;;;;;;;;;;;;;;;5113814;28;20025;-79
2022/08/03 08:15:22;;;;;;;;;;;;;;;;;;5113989;28;20335;-79
2022/08/03 08:17:48;;;;;;;;;;;;;;;;;;5079041;28;20385;-79
2022/08/03 08:20:13;;;;;;;;;;;;;;;;;;5095554;28;19912;-79
2022/08/03 08:22:38;;;;;;;;;;;;;;;;;;5077400;28;20418;-79
2022/08/03 08:25:04;;;;;;;;;;;;;;;;;;5095706;28;19999;-80
2022/08/03 08:27:32;;;;;;;;;;;;;;;;;;5113632;28;19911;-80
2022/08/03 08:29:57;;;;;;;;;;;;;;;;;;5113822;28;19926;-80
2022/08/03 08:32:25;;;;;;;;;;;;;;;;;;5113693;28;20329;-79
2022/08/03 08:34:59;;;;;;;;;;;;;;;;;;5079842;28;19920;-79
2022/08/03 08:37:25;;;;;;;;;;;;;;;;;;5113410;28;19912;-79
2022/08/03 08:39:53;;;;;;;;;;;;;;;;;;5062628;28;19912;-81
2022/08/03 08:42:24;;;;;;;;;;;;;;;;;;5062626;28;19912;-79
2022/08/03 08:44:49;;;;;;;;;;;;;;;;;;5113641;28;19938;-80
2022/08/03 08:47:15;;;;;;;;;;;;;;;;;;5113500;28;19912;-81
2022/08/03 08:49:43;;;;;;;;;;;;;;;;;;5113083;28;19931;-79
2022/08/03 08:52:08;;;;;;;;;;;;;;;;;;5078234;28;20026;-81
2022/08/03 08:54:34;;;;;;;;;;;;;;;;;;5112944;28;19907;-81
2022/08/03 08:56:59;;;;;;;;;;;;;;;;;;5095513;28;20400;-81
2022/08/03 08:59:25;;;;;;;;;;;;;;;;;;5113108;28;20378;-80
2022/08/03 09:01:50;;;;;;;;;;;;;;;;;;5113073;28;19912;-81
2022/08/03 09:04:16;;;;;;;;;;;;;;;;;;5112532;28;20010;-82
2022/08/03 09:06:41;;;;;;;;;;;;;;;;;;5113128;28;19920;-81
2022/08/03 09:09:07;;;;;;;;;;;;;;;;;;5112817;28;20371;-80
2022/08/03 09:11:32;;;;;;;;;;;;;;;;;;5112828;28;19915;-80
2022/08/03 09:13:57;;;;;;;;;;;;;;;;;;5112550;28;20370;-80
2022/08/03 09:16:23;;;;;;;;;;;;;;;;;;5112646;28;19951;-81
2022/08/03 09:18:48;;;;;;;;;;;;;;;;;;5094580;28;20382;-81
2022/08/03 09:21:14;;;;;;;;;;;;;;;;;;5094449;28;19951;-79
2022/08/03 09:23:39;;;;;;;;;;;;;;;;;;5112369;28;19985;-79
2022/08/03 09:26:04;;;;;;;;;;;;;;;;;;5112938;28;19918;-80
2022/08/03 09:28:30;;;;;;;;;;;;;;;;;;5109617;22;19925;-76
2022/08/03 09:30:56;;;;;;;;;;;;;;;;;;5018060;28;20396;-76
2022/08/03 09:33:21;;;;;;;;;;;;;;;;;;5033926;28;19915;-77
2022/08/03 09:35:47;;;;;;;;;;;;;;;;;;5034529;28;20436;-77
2022/08/03 09:38:13;;;;;;;;;;;;;;;;;;5051062;28;19917;-77
2022/08/03 09:40:39;;;;;;;;;;;;;;;;;;5018426;28;20395;-77
2022/08/03 09:43:06;;;;;;;;;;;;;;;;;;5018237;28;19986;-78
2022/08/03 09:45:32;;;;;;;;;;;;;;;;;;5052020;28;19958;-76
2022/08/03 09:47:58;;;;;;;;;;;;;;;;;;5053849;28;19955;-77
2022/08/03 09:50:24;;;;;;;;;;;;;;;;;;5050911;28;20027;-76
2022/08/03 09:52:50;;;;;;;;;;;;;;;;;;5051786;28;20336;-78
2022/08/03 09:55:16;;;;;;;;;;;;;;;;;;5050625;28;20364;-78
2022/08/03 09:57:45;;;;;;;;;;;;;;;;;;5052562;28;19958;-78
2022/08/03 10:00:11;;;;;;;;;;;;;;;;;;5053512;28;19912;-77
2022/08/03 10:02:39;;;;;;;;;;;;;;;;;;5036793;28;19919;-77
2022/08/03 10:05:05;;;;;;;;;;;;;;;;;;5054425;28;19980;-77
2022/08/03 10:07:30;;;;;;;;;;;;;;;;;;5051377;28;20359;-77
2022/08/03 10:09:56;;;;;;;;;;;;;;;;;;5034252;28;20300;-78
2022/08/03 10:12:22;;;;;;;;;;;;;;;;;;5033492;28;19971;-78
2022/08/03 10:14:47;;;;;;;;;;;;;;;;;;5033537;28;20407;-79
2022/08/03 10:17:13;;;;;;;;;;;;;;;;;;5033845;28;20387;-78
2022/08/03 10:19:38;;;;;;;;;;;;;;;;;;5051422;28;20388;-77
2022/08/03 10:22:04;;;;;;;;;;;;;;;;;;5016877;28;20332;-78
2022/08/03 10:24:29;;;;;;;;;;;;;;;;;;5050946;28;19919;-76
2022/08/03 10:26:55;;;;;;;;;;;;;;;;;;5050097;28;20330;-77
2022/08/03 10:29:23;;;;;;;;;;;;;;;;;;5033465;28;20276;-78
2022/08/03 10:31:49;;;;;;;;;;;;;;;;;;5049656;28;19920;-76
2022/08/03 10:34:14;;;;;;;;;;;;;;;;;;5050644;28;20335;-76
2022/08/03 10:36:40;;;;;;;;;;;;;;;;;;5033260;28;19920;-77
2022/08/03 10:39:05;;;;;;;;;;;;;;;;;;5032862;28;19982;-75
2022/08/03 10:41:31;;;;;;;;;;;;;;;;;;5051107;28;20341;-77
2022/08/03 10:43:57;;;;;;;;;;;;;;;;;;5032999;28;19917;-77
2022/08/03 10:46:22;;;;;;;;;;;;;;;;;;5053479;28;20334;-77
2022/08/03 10:48:48;;;;;;;;;;;;;;;;;;5053445;28;19982;-78
2022/08/03 10:51:13;;;;;;;;;;;;;;;;;;5053322;28;20273;-74
2022/08/03 10:53:41;;;;;;;;;;;;;;;;;;5036164;28;19942;-77
2022/08/03 10:59:07;;;;;;;;;;;;;;;;;;4976808;28;20052;-76
2022/08/03 11:01:33;;;;;;;;;;;;;;;;;;5024350;28;20398;-78
2022/08/03 11:03:58;;;;;;;;;;;;;;;;;;5036313;28;19936;-76
2022/08/03 11:06:24;;;;;;;;;;;;;;;;;;5054360;28;19965;-75
2022/08/03 11:08:50;;;;;;;;;;;;;;;;;;5053181;28;19948;-76
2022/08/03 11:11:15;;;;;;;;;;;;;;;;;;5054520;28;19924;-76
2022/08/03 11:13:41;;;;;;;;;;;;;;;;;;5036215;28;20254;-76
2022/08/03 11:16:07;;;;;;;;;;;;;;;;;;5054066;28;19919;-76
2022/08/03 11:18:33;;;;;;;;;;;;;;;;;;5036302;28;19917;-77
2022/08/03 11:20:59;;;;;;;;;;;;;;;;;;5052970;28;20424;-77
2022/08/03 11:23:24;;;;;;;;;;;;;;;;;;5019836;28;19998;-76
2022/08/03 11:25:50;;;;;;;;;;;;;;;;;;5054034;28;20291;-76
2022/08/03 11:28:15;;;;;;;;;;;;;;;;;;5035903;28;20386;-77
2022/08/03 11:30:41;;;;;;;;;;;;;;;;;;5036280;28;19913;-77
2022/08/03 11:33:06;;;;;;;;;;;;;;;;;;5053462;28;20015;-77
2022/08/03 11:35:35;;;;;;;;;;;;;;;;;;5053858;28;20471;-78
2022/08/03 11:38:01;;;;;;;;;;;;;;;;;;5052476;28;19967;-77
2022/08/03 11:40:26;;;;;;;;;;;;;;;;;;5036130;28;19917;-76
2022/08/03 11:42:54;;;;;;;;;;;;;;;;;;5035755;28;19944;-76
2022/08/03 11:45:20;;;;;;;;;;;;;;;;;;5036079;28;19940;-77
2022/08/03 11:47:45;;;;;;;;;;;;;;;;;;5019527;28;19936;-78
2022/08/03 11:50:11;;;;;;;;;;;;;;;;;;5035820;28;19913;-77
2022/08/03 11:52:37;;;;;;;;;;;;;;;;;;5035670;28;20513;-77
2022/08/03 11:55:02;;;;;;;;;;;;;;;;;;5035762;28;20287;-77
2022/08/03 11:57:28;;;;;;;;;;;;;;;;;;5054430;28;19916;-78
2022/08/03 11:59:54;;;;;;;;;;;;;;;;;;5036104;28;20007;-77
2022/08/03 12:02:19;;;;;;;;;;;;;;;;;;5036588;28;19948;-76
2022/08/03 12:04:45;;;;;;;;;;;;;;;;;;5036183;28;20372;-76
2022/08/03 12:07:10;;;;;;;;;;;;;;;;;;5053223;28;20315;-78
2022/08/03 12:09:38;;;;;;;;;;;;;;;;;;5054527;28;19923;-77
2022/08/03 12:12:04;;;;;;;;;;;;;;;;;;5053114;28;19913;-78
2022/08/03 12:14:29;;;;;;;;;;;;;;;;;;5035782;28;20334;-78
2022/08/03 12:16:55;;;;;;;;;;;;;;;;;;5036127;28;20260;-77
2022/08/03 12:19:21;;;;;;;;;;;;;;;;;;5035887;28;20320;-77
2022/08/03 12:21:47;;;;;;;;;;;;;;;;;;5035921;28;20277;-76
2022/08/03 12:24:12;;;;;;;;;;;;;;;;;;5035287;28;20005;-77
2022/08/03 12:26:38;;;;;;;;;;;;;;;;;;5052165;28;20374;-77
2022/08/03 12:29:03;;;;;;;;;;;;;;;;;;5035163;28;19923;-77
2022/08/03 12:31:30;;;;;;;;;;;;;;;;;;5052103;28;20303;-76
2022/08/03 12:33:56;;;;;;;;;;;;;;;;;;5038071;28;19913;-77
2022/08/03 12:36:21;;;;;;;;;;;;;;;;;;5038884;28;19982;-76
2022/08/03 12:38:47;;;;;;;;;;;;;;;;;;5037438;28;20383;-77
2022/08/03 12:41:14;;;;;;;;;;;;;;;;;;5053165;28;19944;-76
2022/08/03 12:43:40;;;;;;;;;;;;;;;;;;5051085;28;19913;-77
2022/08/03 12:46:05;;;;;;;;;;;;;;;;;;5051956;28;20055;-76
2022/08/03 12:48:31;;;;;;;;;;;;;;;;;;5053704;28;19959;-77
2022/08/03 12:50:56;;;;;;;;;;;;;;;;;;5035377;28;19909;-78
2022/08/03 12:53:22;;;;;;;;;;;;;;;;;;5052495;28;20299;-77
2022/08/03 12:55:47;;;;;;;;;;;;;;;;;;5052570;28;20414;-77
2022/08/03 12:58:13;;;;;;;;;;;;;;;;;;5035059;28;20526;-77
2022/08/03 13:00:39;;;;;;;;;;;;;;;;;;5053592;28;19916;-77
2022/08/03 13:03:05;;;;;;;;;;;;;;;;;;5052610;28;20333;-77
2022/08/03 13:05:33;;;;;;;;;;;;;;;;;;5051574;28;19913;-76
2022/08/03 13:07:59;;;;;;;;;;;;;;;;;;5035173;28;19974;-77
2022/08/03 13:10:25;;;;;;;;;;;;;;;;;;5052739;28;19966;-76
2022/08/03 13:12:50;;;;;;;;;;;;;;;;;;5052743;28;19972;-77
2022/08/03 13:15:16;;;;;;;;;;;;;;;;;;5053556;28;19948;-75
2022/08/03 13:17:41;;;;;;;;;;;;;;;;;;5019638;28;19971;-77
2022/08/03 13:20:07;;;;;;;;;;;;;;;;;;5052666;28;19913;-77
2022/08/03 13:22:33;;;;;;;;;;;;;;;;;;5051440;28;20026;-77
2022/08/03 13:25:00;;;;;;;;;;;;;;;;;;5054186;28;20338;-77
2022/08/03 13:27:25;;;;;;;;;;;;;;;;;;5051302;28;20017;-76
2022/08/03 13:29:52;;;;;;;;;;;;;;;;;;5017495;28;20332;-77
2022/08/03 13:32:17;;;;;;;;;;;;;;;;;;5050899;28;20364;-78
2022/08/03 13:34:43;;;;;;;;;;;;;;;;;;5034060;28;19939;-77
2022/08/03 13:37:08;;;;;;;;;;;;;;;;;;5034220;28;19913;-77
2022/08/03 13:39:34;;;;;;;;;;;;;;;;;;5052015;28;19917;-77
2022/08/03 13:42:00;;;;;;;;;;;;;;;;;;5052775;28;19959;-76
2022/08/03 13:44:25;;;;;;;;;;;;;;;;;;5034911;28;20269;-76
2022/08/03 13:46:51;;;;;;;;;;;;;;;;;;5052043;28;19924;-79
2022/08/03 13:49:18;;;;;;;;;;;;;;;;;;5050419;28;19920;-76
2022/08/03 13:51:43;;;;;;;;;;;;;;;;;;5034270;28;19909;-77
2022/08/03 13:54:09;;;;;;;;;;;;;;;;;;5033777;28;19920;-76
2022/08/03 13:56:34;;;;;;;;;;;;;;;;;;5017983;28;20029;-76
2022/08/03 13:59:00;;;;;;;;;;;;;;;;;;5034219;28;19927;-77
2022/08/03 14:01:26;;;;;;;;;;;;;;;;;;5050970;28;19916;-77
2022/08/03 14:03:53;;;;;;;;;;;;;;;;;;5034066;28;19913;-75
2022/08/03 14:06:18;;;;;;;;;;;;;;;;;;5050562;28;19947;-77
2022/08/03 14:08:43;;;;;;;;;;;;;;;;;;5033501;28;20015;-77
2022/08/03 14:11:09;;;;;;;;;;;;;;;;;;5051016;28;19920;-76
2022/08/03 14:13:34;;;;;;;;;;;;;;;;;;5033244;28;19913;-78
2022/08/03 14:16:00;;;;;;;;;;;;;;;;;;5051615;28;20304;-77
2022/08/03 14:18:25;;;;;;;;;;;;;;;;;;5051670;28;20016;-79
2022/08/03 14:20:51;;;;;;;;;;;;;;;;;;5054649;28;19952;-77
2022/08/03 14:23:16;;;;;;;;;;;;;;;;;;5037449;28;19932;-76
2022/08/03 14:25:42;;;;;;;;;;;;;;;;;;5039230;28;19920;-76
2022/08/03 14:28:07;;;;;;;;;;;;;;;;;;5053919;28;20300;-77
2022/08/03 14:30:32;;;;;;;;;;;;;;;;;;5055635;28;19935;-76
2022/08/03 14:32:58;;;;;;;;;;;;;;;;;;5037354;28;20008;-77
2022/08/03 14:35:23;;;;;;;;;;;;;;;;;;5055333;28;20295;-77
2022/08/03 14:37:49;;;;;;;;;;;;;;;;;;5053959;28;19917;-76
2022/08/03 14:40:14;;;;;;;;;;;;;;;;;;5037938;28;19944;-76
2022/08/03 14:42:40;;;;;;;;;;;;;;;;;;5038953;28;19913;-78
2022/08/03 14:45:05;;;;;;;;;;;;;;;;;;5054666;28;19956;-77
2022/08/03 14:47:32;;;;;;;;;;;;;;;;;;5054801;28;19920;-76
2022/08/03 14:49:57;;;;;;;;;;;;;;;;;;5054528;28;19963;-76
2022/08/03 14:52:23;;;;;;;;;;;;;;;;;;5037456;28;19920;-77
2022/08/03 14:54:48;;;;;;;;;;;;;;;;;;5037052;28;20306;-77
2022/08/03 14:57:14;;;;;;;;;;;;;;;;;;5053540;28;19920;-77
2022/08/03 14:59:39;;;;;;;;;;;;;;;;;;5054758;28;19913;-77
2022/08/03 15:02:04;;;;;;;;;;;;;;;;;;5054377;28;20027;-77
2022/08/03 15:04:30;;;;;;;;;;;;;;;;;;5054422;28;19920;-76
2022/08/03 15:06:55;;;;;;;;;;;;;;;;;;5036664;28;20065;-77
2022/08/03 15:09:21;;;;;;;;;;;;;;;;;;5036368;28;19913;-77
2022/08/03 15:11:47;;;;;;;;;;;;;;;;;;5053028;28;19936;-78
2022/08/03 15:14:13;;;;;;;;;;;;;;;;;;5036115;28;20017;-76
2022/08/03 15:16:38;;;;;;;;;;;;;;;;;;5054334;28;20360;-77
2022/08/03 15:19:03;;;;;;;;;;;;;;;;;;5054515;28;19916;-78
2022/08/03 15:21:29;;;;;;;;;;;;;;;;;;5036552;28;19952;-77
2022/08/03 15:23:54;;;;;;;;;;;;;;;;;;5054473;28;19912;-78
2022/08/03 15:26:20;;;;;;;;;;;;;;;;;;5036661;28;20278;-77
2022/08/03 15:28:45;;;;;;;;;;;;;;;;;;5046731;22;19995;-78
2022/08/03 15:31:11;;;;;;;;;;;;;;;;;;5020882;28;19952;-77
2022/08/03 15:33:37;;;;;;;;;;;;;;;;;;5020945;28;19909;-79
2022/08/03 15:36:02;;;;;;;;;;;;;;;;;;5005340;28;19920;-78
2022/08/03 15:38:28;;;;;;;;;;;;;;;;;;5020564;28;19917;-79
2022/08/03 15:40:53;;;;;;;;;;;;;;;;;;5054771;28;19975;-78
2022/08/03 15:43:19;;;;;;;;;;;;;;;;;;5036179;28;19948;-78
2022/08/03 15:45:44;;;;;;;;;;;;;;;;;;5036889;28;19913;-77
2022/08/03 15:48:10;;;;;;;;;;;;;;;;;;5004186;28;19913;-78
2022/08/03 15:50:36;;;;;;;;;;;;;;;;;;5019775;28;19952;-78
2022/08/03 15:53:01;;;;;;;;;;;;;;;;;;5019608;28;19923;-79
2022/08/03 15:55:27;;;;;;;;;;;;;;;;;;5036368;28;20013;-77
2022/08/03 15:57:52;;;;;;;;;;;;;;;;;;5003640;28;19921;-79
2022/08/03 16:00:18;;;;;;;;;;;;;;;;;;5019890;28;19912;-77
2022/08/03 16:02:43;;;;;;;;;;;;;;;;;;5035987;28;19921;-77
2022/08/03 16:05:09;;;;;;;;;;;;;;;;;;5054087;28;19974;-77
2022/08/03 16:07:47;;;;;;;;;;;;;;;;;;5019533;28;19913;-77
2022/08/03 16:10:13;;;;;;;;;;;;;;;;;;5036159;28;19924;-76
2022/08/03 16:12:38;;;;;;;;;;;;;;;;;;5035468;28;19909;-77
2022/08/03 16:15:04;;;;;;;;;;;;;;;;;;5003026;28;19924;-77
2022/08/03 16:17:29;;;;;;;;;;;;;;;;;;5035578;28;19912;-78
2022/08/03 16:19:55;;;;;;;;;;;;;;;;;;5019110;28;19913;-78
2022/08/03 16:22:20;;;;;;;;;;;;;;;;;;5035257;28;19917;-78
2022/08/03 16:24:46;;;;;;;;;;;;;;;;;;5034808;28;19966;-78
2022/08/03 16:27:12;;;;;;;;;;;;;;;;;;5035764;28;19959;-79
2022/08/03 16:29:37;;;;;;;;;;;;;;;;;;5018733;28;19916;-78
2022/08/03 16:32:05;;;;;;;;;;;;;;;;;;5018973;28;19967;-77
2022/08/03 16:34:31;;;;;;;;;;;;;;;;;;5035152;28;19990;-78
2022/08/03 16:36:56;;;;;;;;;;;;;;;;;;5018592;28;19913;-77
2022/08/03 16:39:22;;;;;;;;;;;;;;;;;;5019005;28;19921;-77
2022/08/03 16:41:48;;;;;;;;;;;;;;;;;;5018458;28;19913;-77
2022/08/03 16:44:13;;;;;;;;;;;;;;;;;;5034828;28;19909;-76
2022/08/03 16:46:41;;;;;;;;;;;;;;;;;;5035250;28;19913;-77
2022/08/03 16:49:07;;;;;;;;;;;;;;;;;;5002566;28;19920;-77